Airfield :
LOGIN :

Register | Disclaimer

   EN    FR    IT 

 










Legend :    VFR   Marginal VFR   IFR   Intensive IFR   Very Intensive IFR
Visi :
Ceiling :
>= 8 km
>= 3000ft
5 to 8 km
1000 to 3000 ft
1500m to 5 km
500 to 1000 ft
800 to 1500m
200 to 500 ft
< 800m
< 200 ft
Symbols :   Thunderstorms  Fog  Heavy snow  Heavy precipitations  Wind > 20 kt
SIGMETs :     Misc.  Thunderstorms  Icing  Turbulence  Mountain Waves  Volcanic Ashes







- Airport Elevation : 265 ft


ETSH - Holzdorf AB

CURRENT METAR :
  • 171320Z 11003KT 9999 FEW250 20/08 Q1018 BLU+BLU+

EXPIRED METARs :
  • 171220Z VRB03KT 9999 FEW250 20/09 Q1019 BLU+BLU+
  • 171120Z 13004KT 9999 FEW100 18/09 Q1019 BLU+BLU+

TAF TAF ETSH
Valid from the 17 at 14:00 until the 17 at 23:00 UTC


171308Z 1714/1723 VRB02KT 8000 NSW FEW100
TEMPO 1716/1723 VRB01KT 5000 BR FEW100
No reported NOTAMs for that airfield.



MET'MAP, your aeronautical weather chart ! - Copyright ORBIFLY December 2007 - Disclaimer

ORBIFLY MET'MAP TEAM :

Programming & Development : Alexandra Zaïnal
Concept & Development : Baudouin d'Aumeries
Co-Development & Prog : Marc-Olivier Méhu
Technical & hardware support : Manuel Goepfert

Contact : metmap@orbifly.com




SOURCES & CREDITS :

   NOAA